KDHT/DHT METAR and TAF weather

Enter ICAO airport designator
Station Type Date Time Source
KDHT METAR 2021/04/13 07:53 UTC NOAA

KDHT 130753Z AUTO 07005KT 10SM CLR 05/M06 A3019 RMK AO2 SLP211 T00501056


Station Type Date Time Source
KDHT Decoded METAR 2021/04/13 07:53 UTC NOAA

DALHART MUNICIPAL AIRPORT, TX, United States (KDHT) 36-01N 102-33W 1217M
Apr 13, 2021 - 03:53 AM EDT / 2021.04.13 0753 UTC
Wind: from the ENE (070 degrees) at 6 MPH (5 KT):0
Visibility: 10 mile(s):0
Sky conditions: clear
Temperature: 41.0 F (5.0 C)
Dew Point: 21.9 F (-5.6 C)
Relative Humidity: 46%
Pressure (altimeter): 30.19 in. Hg (1022 hPa)
ob: KDHT 130753Z AUTO 07005KT 10SM CLR 05/M06 A3019 RMK AO2 SLP211 T00501056
cycle: 8

Station Type Date Time Source
KDHT TAF 2021/04/13 06:33 UTC NOAA

TAF KDHT 130531Z 1306/1406 04009KT P6SM SCT100 BKN300
FM131400 08012KT P6SM SCT150 BKN300
FM131800 12012KT P6SM SCT120 BKN300

Example: see airport list